Time;durP1;ratioP1;P1;durP2;ratioP2;P2;SDS_P1;SDS_P2;PMS_P1;PMS_P2;Temp;Humidity;BMP_temperature;BMP_pressure;BME280_temperature;BME280_humidity;BME280_pressure;Samples;Min_cycle;Max_cycle;Signal;HPM_P1;HPM_P2
2022/12/08 00:02:23;;;;;;;7.25;2.60;;;16.00;64.00;;;;;;10404968;28;20096;-52
2022/12/08 00:12:44;;;;;;;4.07;1.27;;;16.00;63.90;;;;;;10422492;28;20536;-53
2022/12/08 00:17:44;;;;;;;3.05;1.00;;;16.10;63.70;;;;;;10453391;28;20055;-51
2022/12/08 00:22:45;;;;;;;1.80;0.88;;;16.10;63.50;;;;;;10448758;28;20399;-53
2022/12/08 00:27:45;;;;;;;2.35;1.40;;;16.10;63.40;;;;;;10451930;28;20115;-53
2022/12/08 00:32:46;;;;;;;2.88;1.20;;;16.10;63.50;;;;;;10429904;28;20112;-51
2022/12/08 00:37:47;;;;;;;2.80;1.08;;;16.10;63.50;;;;;;10410182;28;20142;-51
2022/12/08 00:42:47;;;;;;;2.40;1.10;;;16.10;63.50;;;;;;10421834;28;20024;-52
2022/12/08 00:47:48;;;;;;;1.80;0.93;;;16.10;63.50;;;;;;10450798;28;20123;-53
2022/12/08 00:52:49;;;;;;;1.70;1.00;;;16.10;63.50;;;;;;10452201;28;20113;-53
2022/12/08 00:57:49;;;;;;;1.55;0.80;;;16.10;63.40;;;;;;10451062;28;20067;-53
2022/12/08 01:02:50;;;;;;;1.73;0.85;;;16.10;63.40;;;;;;10421913;28;20174;-54
2022/12/08 01:07:51;;;;;;;1.90;0.80;;;16.10;63.40;;;;;;10420431;28;20146;-53
2022/12/08 01:12:51;;;;;;;1.15;0.80;;;16.10;63.30;;;;;;10422164;28;20079;-50
2022/12/08 01:17:52;;;;;;;3.70;1.13;;;16.10;63.30;;;;;;10427261;28;20023;-52
2022/12/08 01:22:52;;;;;;;2.53;1.08;;;16.10;63.30;;;;;;10438528;28;20735;-52
2022/12/08 01:27:53;;;;;;;1.25;0.75;;;16.10;63.20;;;;;;10407289;28;20490;-54
2022/12/08 01:32:54;;;;;;;1.55;0.80;;;16.10;63.30;;;;;;10391625;28;20112;-51
2022/12/08 01:37:55;;;;;;;1.38;0.70;;;16.10;63.30;;;;;;10419417;28;20116;-53
2022/12/08 01:42:56;;;;;;;1.90;1.00;;;16.10;63.40;;;;;;10449216;28;20479;-54
2022/12/08 01:48:02;;;;;;;3.10;0.95;;;16.20;63.40;;;;;;10448439;28;20488;-54
2022/12/08 01:53:13;;;;;;;1.92;1.00;;;16.10;63.30;;;;;;10434186;28;20104;-53
2022/12/08 01:58:30;;;;;;;1.98;1.00;;;16.10;63.30;;;;;;10420947;28;20024;-53
2022/12/08 02:03:56;;;;;;;2.95;1.23;;;16.10;63.40;;;;;;10440360;28;20024;-52
2022/12/08 02:08:59;;;;;;;2.15;1.20;;;16.10;63.40;;;;;;10410932;28;20045;-53
2022/12/08 02:14:04;;;;;;;2.97;1.10;;;16.10;63.40;;;;;;10432626;28;20071;-52
2022/12/08 02:20:03;;;;;;;2.83;1.30;;;16.10;63.20;;;;;;10448676;28;20055;-53
2022/12/08 02:25:50;;;;;;;1.65;0.90;;;16.10;63.10;;;;;;10444425;28;20021;-52
2022/12/08 02:31:22;;;;;;;3.05;1.10;;;16.10;63.20;;;;;;10407303;28;20486;-52
2022/12/08 02:36:31;;;;;;;2.70;1.00;;;16.10;63.20;;;;;;10443333;28;20021;-53
2022/12/08 02:41:58;;;;;;;1.63;0.80;;;16.10;63.30;;;;;;10420231;28;20033;-53
2022/12/08 02:47:13;;;;;;;1.23;0.70;;;16.10;63.20;;;;;;10436474;28;20052;-51
2022/12/08 02:52:13;;;;;;;1.63;0.90;;;16.10;63.20;;;;;;10446384;28;20107;-54
2022/12/08 02:57:40;;;;;;;1.40;0.95;;;16.10;63.20;;;;;;10437610;28;20026;-53
2022/12/08 03:03:17;;;;;;;1.45;0.80;;;16.10;63.20;;;;;;10404626;28;20028;-53
2022/12/08 03:08:40;;;;;;;2.35;1.70;;;16.10;63.10;;;;;;10439826;28;20036;-54
2022/12/08 03:13:47;;;;;;;2.53;0.88;;;16.10;63.20;;;;;;10446865;28;20028;-52
2022/12/08 03:19:22;;;;;;;2.85;1.00;;;16.10;63.20;;;;;;10428948;28;20026;-52
2022/12/08 03:24:23;;;;;;;1.95;1.20;;;16.10;63.30;;;;;;10436411;28;20480;-55
2022/12/08 03:29:24;;;;;;;2.67;1.42;;;16.10;63.20;;;;;;10439841;28;20040;-54
2022/12/08 03:34:28;;;;;;;2.15;1.00;;;16.10;63.20;;;;;;10397628;28;20022;-54
2022/12/08 03:39:29;;;;;;;1.05;0.73;;;16.10;63.00;;;;;;10412892;28;20033;-53
2022/12/08 03:44:29;;;;;;;2.03;0.88;;;16.10;63.00;;;;;;10444835;28;20120;-54
2022/12/08 03:49:30;;;;;;;1.67;0.65;;;16.10;63.00;;;;;;10448521;28;20060;-54
2022/12/08 03:54:31;;;;;;;0.90;0.52;;;16.10;62.90;;;;;;10442139;28;20060;-53
2022/12/08 03:59:31;;;;;;;1.30;0.70;;;16.10;62.90;;;;;;10411654;28;20044;-54
2022/12/08 04:04:32;;;;;;;1.58;0.68;;;16.10;62.90;;;;;;10412011;28;20180;-54
2022/12/08 04:09:33;;;;;;;1.63;0.80;;;16.10;62.80;;;;;;10427065;28;20025;-52
2022/12/08 04:14:33;;;;;;;1.45;0.80;;;16.10;62.80;;;;;;10452477;28;20578;-53
2022/12/08 04:19:34;;;;;;;1.58;0.55;;;16.10;62.70;;;;;;10455432;28;21022;-52
2022/12/08 04:24:35;;;;;;;1.02;0.60;;;16.10;62.70;;;;;;10432136;28;20035;-54
2022/12/08 04:29:35;;;;;;;1.65;0.63;;;16.10;62.70;;;;;;10452999;28;20025;-54
2022/12/08 04:34:36;;;;;;;1.75;1.08;;;16.10;62.70;;;;;;10452822;28;20104;-51
2022/12/08 04:39:37;;;;;;;1.17;0.50;;;16.10;62.60;;;;;;10424516;28;20389;-53
2022/12/08 04:44:37;;;;;;;2.25;0.50;;;16.10;62.80;;;;;;10450792;28;20077;-54
2022/12/08 04:49:38;;;;;;;0.82;0.50;;;16.10;62.80;;;;;;10411866;28;20037;-56
2022/12/08 04:54:39;;;;;;;1.25;0.40;;;16.10;62.60;;;;;;10411696;28;20512;-52
2022/12/08 04:59:39;;;;;;;0.70;0.43;;;16.10;62.60;;;;;;10432627;28;20060;-53
2022/12/08 05:04:40;;;;;;;0.55;0.40;;;16.10;62.60;;;;;;10446721;28;20026;-53
2022/12/08 05:09:41;;;;;;;0.75;0.40;;;16.10;62.50;;;;;;10441784;28;20167;-52
2022/12/08 05:14:41;;;;;;;1.25;0.57;;;16.10;62.50;;;;;;10444864;28;20080;-53
2022/12/08 05:19:42;;;;;;;2.00;0.73;;;16.10;62.60;;;;;;10447020;28;20028;-54
2022/12/08 05:24:43;;;;;;;1.40;0.52;;;16.10;62.70;;;;;;10442444;28;20052;-53
2022/12/08 05:29:43;;;;;;;0.80;0.45;;;16.10;62.60;;;;;;10402190;28;20075;-54
2022/12/08 05:34:44;;;;;;;0.55;0.30;;;16.10;62.50;;;;;;10441401;28;20108;-52
2022/12/08 05:39:45;;;;;;;1.23;0.60;;;16.10;62.50;;;;;;10412098;28;20048;-51
2022/12/08 05:44:45;;;;;;;1.23;0.45;;;16.10;62.40;;;;;;10424917;28;20552;-53
2022/12/08 05:49:46;;;;;;;1.33;1.25;;;16.10;62.40;;;;;;10443770;28;20446;-53
2022/12/08 05:54:46;;;;;;;4.30;2.08;;;16.10;62.80;;;;;;10434696;28;20093;-48
2022/12/08 05:59:47;;;;;;;5.53;3.42;;;16.20;63.20;;;;;;10417792;28;20699;-54
2022/12/08 06:04:48;;;;;;;4.55;2.92;;;16.30;63.70;;;;;;10406864;28;20096;-52
2022/12/08 06:09:48;;;;;;;5.40;2.92;;;16.50;64.60;;;;;;10438314;28;20059;-52
2022/12/08 06:14:49;;;;;;;6.47;3.28;;;16.40;65.20;;;;;;10440830;28;20083;-52
2022/12/08 06:19:50;;;;;;;8.55;3.53;;;16.40;65.90;;;;;;10431547;28;20352;-54
2022/12/08 06:24:51;;;;;;;7.20;2.92;;;16.40;65.90;;;;;;10417386;28;20053;-53
2022/12/08 06:29:51;;;;;;;12.27;3.30;;;16.30;65.40;;;;;;10436705;28;20511;-53
2022/12/08 06:34:52;;;;;;;13.75;3.72;;;16.30;65.10;;;;;;10446314;28;20078;-48
2022/12/08 06:39:53;;;;;;;12.05;3.53;;;16.30;66.20;;;;;;10421930;28;20025;-52
2022/12/08 06:44:53;;;;;;;8.23;3.30;;;16.10;65.90;;;;;;10423561;28;20429;-53
2022/12/08 06:49:54;;;;;;;11.43;3.28;;;16.00;65.90;;;;;;10435107;28;20473;-53
2022/12/08 06:54:56;;;;;;;5.93;3.63;;;15.90;65.90;;;;;;10437432;28;20049;-53
2022/12/08 06:59:56;;;;;;;12.40;3.35;;;15.80;65.90;;;;;;10427765;28;20614;-49
2022/12/08 07:04:57;;;;;;;10.80;3.67;;;15.90;65.70;;;;;;10408532;28;20496;-53
2022/12/08 07:09:58;;;;;;;14.02;2.95;;;16.00;65.90;;;;;;10423088;28;20164;-52
2022/12/08 07:14:58;;;;;;;12.20;3.17;;;16.00;66.00;;;;;;10401116;28;20022;-53
2022/12/08 07:19:59;;;;;;;4.65;2.83;;;16.00;65.90;;;;;;10411981;28;20049;-52
2022/12/08 07:25:00;;;;;;;7.47;2.40;;;16.00;65.20;;;;;;10427520;28;20025;-49
2022/12/08 07:30:00;;;;;;;10.95;2.17;;;16.10;64.60;;;;;;10431812;28;20530;-54
2022/12/08 07:35:01;;;;;;;5.93;2.33;;;16.10;64.60;;;;;;10434241;28;20234;-54
2022/12/08 07:40:04;;;;;;;6.97;1.92;;;16.00;64.60;;;;;;10444436;28;20433;-53
2022/12/08 07:45:05;;;;;;;7.10;1.70;;;16.00;64.60;;;;;;10423990;28;20049;-54
2022/12/08 07:50:07;;;;;;;8.32;2.22;;;15.90;64.70;;;;;;10438499;28;20037;-52
2022/12/08 07:55:08;;;;;;;6.43;2.83;;;15.80;65.40;;;;;;10436048;28;20029;-53
2022/12/08 08:00:10;;;;;;;3.35;1.30;;;15.90;64.70;;;;;;10443616;28;20079;-52
2022/12/08 08:05:11;;;;;;;5.90;1.58;;;15.80;64.60;;;;;;10431931;28;20026;-53
2022/12/08 08:10:12;;;;;;;6.07;1.63;;;15.90;64.50;;;;;;10419070;28;20030;-52
2022/12/08 08:15:12;;;;;;;6.53;1.25;;;15.90;64.40;;;;;;10430528;28;20029;-53
2022/12/08 08:20:13;;;;;;;5.28;1.20;;;16.00;64.10;;;;;;10449298;28;20546;-52
2022/12/08 08:25:15;;;;;;;3.97;1.20;;;16.00;63.90;;;;;;10409931;28;20021;-51
2022/12/08 08:30:16;;;;;;;5.97;2.53;;;16.00;63.90;;;;;;10426878;28;20022;-52
2022/12/08 08:35:18;;;;;;;3.15;1.27;;;16.00;63.60;;;;;;10408801;28;20025;-49
2022/12/08 08:40:18;;;;;;;4.60;1.20;;;16.00;63.50;;;;;;10429238;28;20089;-53
2022/12/08 08:45:19;;;;;;;2.70;0.70;;;15.90;63.60;;;;;;10425160;28;20073;-51
2022/12/08 08:50:20;;;;;;;3.25;0.90;;;16.00;63.30;;;;;;10408221;28;20025;-52
2022/12/08 08:55:21;;;;;;;5.28;2.20;;;16.00;63.40;;;;;;10432241;28;20021;-51
2022/12/08 09:00:21;;;;;;;1.00;0.60;;;16.00;63.30;;;;;;10436116;28;20431;-51
2022/12/08 09:05:22;;;;;;;1.10;0.50;;;16.00;63.10;;;;;;10422401;28;20029;-51
2022/12/08 09:10:23;;;;;;;0.90;0.40;;;16.00;63.10;;;;;;10438698;28;20116;-53
2022/12/08 09:15:23;;;;;;;2.60;0.60;;;16.00;63.10;;;;;;10449978;28;20101;-53
2022/12/08 09:20:24;;;;;;;1.88;0.68;;;16.10;62.90;;;;;;10459589;28;20104;-51
2022/12/08 09:25:24;;;;;;;1.77;0.73;;;16.00;62.90;;;;;;10434024;28;20533;-52
2022/12/08 09:30:25;;;;;;;2.83;0.57;;;16.00;62.90;;;;;;10426264;28;20102;-52
2022/12/08 09:35:26;;;;;;;1.55;0.50;;;16.10;62.70;;;;;;10450439;28;20092;-53
2022/12/08 09:40:31;;;;;;;0.75;0.40;;;16.00;62.80;;;;;;10433342;28;20045;-53
2022/12/08 09:45:34;;;;;;;1.80;0.40;;;16.00;62.70;;;;;;10422656;28;20052;-51
2022/12/08 09:50:45;;;;;;;1.85;1.38;;;16.10;62.70;;;;;;10432201;28;20041;-54
2022/12/08 09:55:50;;;;;;;0.98;0.30;;;16.00;62.70;;;;;;10413373;28;20108;-53
2022/12/08 10:00:50;;;;;;;0.93;0.30;;;16.00;62.70;;;;;;10407089;28;20032;-48
2022/12/08 10:06:10;;;;;;;1.00;0.30;;;16.10;62.60;;;;;;10402670;28;20538;-53
2022/12/08 10:11:23;;;;;;;0.65;0.30;;;16.00;62.60;;;;;;10408925;28;20045;-52
2022/12/08 10:16:35;;;;;;;3.65;0.40;;;16.10;62.60;;;;;;10428294;28;20508;-52
2022/12/08 10:21:38;;;;;;;0.90;0.30;;;16.10;62.50;;;;;;10423072;28;20032;-53
2022/12/08 10:26:39;;;;;;;1.67;0.93;;;16.00;62.60;;;;;;10409381;28;20029;-53
2022/12/08 10:31:40;;;;;;;1.33;0.32;;;16.00;62.50;;;;;;10431533;28;20106;-52
2022/12/08 10:36:57;;;;;;;0.68;0.32;;;16.10;62.50;;;;;;10433663;28;20028;-52
2022/12/08 10:42:13;;;;;;;1.83;0.40;;;16.10;62.70;;;;;;10433817;28;20579;-51
2022/12/08 10:47:14;;;;;;;3.40;0.30;;;16.20;62.60;;;;;;10429749;28;20102;-49
2022/12/08 10:52:23;;;;;;;2.75;0.40;;;16.10;62.60;;;;;;10437165;28;20028;-52
2022/12/08 10:57:24;;;;;;;0.53;0.30;;;16.10;62.90;;;;;;10429454;28;20520;-50
2022/12/08 11:02:24;;;;;;;0.47;0.38;;;15.90;63.20;;;;;;10435191;28;20104;-52
2022/12/08 11:07:26;;;;;;;0.35;0.20;;;15.90;63.20;;;;;;10438572;28;20102;-48
2022/12/08 11:12:29;;;;;;;0.57;0.30;;;16.00;63.10;;;;;;10415206;28;20033;-53
2022/12/08 11:17:40;;;;;;;0.50;0.30;;;16.00;63.00;;;;;;10434411;28;20021;-52
2022/12/08 11:22:50;;;;;;;0.25;0.20;;;16.00;63.10;;;;;;10451514;28;20016;-53
2022/12/08 11:27:57;;;;;;;4.18;0.70;;;16.00;63.00;;;;;;10431754;28;20029;-51
2022/12/08 11:33:22;;;;;;;2.13;0.35;;;16.00;62.90;;;;;;10445137;28;20025;-51
2022/12/08 11:38:25;;;;;;;0.65;0.28;;;16.00;63.10;;;;;;10404536;28;20075;-51
2022/12/08 11:43:47;;;;;;;1.55;0.45;;;16.00;62.90;;;;;;10387497;28;20024;-52
2022/12/08 11:49:00;;;;;;;0.73;0.30;;;16.00;63.00;;;;;;10410889;28;20033;-52
2022/12/08 11:54:43;;;;;;;0.65;0.30;;;16.00;63.00;;;;;;10410451;28;20024;-53
2022/12/08 11:59:50;;;;;;;1.10;0.40;;;16.00;62.90;;;;;;10424389;28;20060;-53
2022/12/08 12:05:29;;;;;;;1.27;0.68;;;16.10;62.30;;;;;;10438717;28;20416;-53
2022/12/08 12:12:11;;;;;;;0.98;0.30;;;16.10;62.10;;;;;;10417111;28;20037;-51
2022/12/08 12:17:04;;;;;;;0.50;0.45;;;16.10;62.50;;;;;;10420719;28;20384;-51
2022/12/08 12:22:19;;;;;;;2.10;0.40;;;16.00;62.50;;;;;;10461142;28;20665;-51
2022/12/08 12:27:35;;;;;;;0.50;0.30;;;16.10;62.20;;;;;;10452083;28;20025;-53
2022/12/08 12:33:07;;;;;;;0.70;0.30;;;16.10;62.10;;;;;;10445542;28;20033;-51
2022/12/08 12:44:11;;;;;;;0.75;0.30;;;16.10;62.40;;;;;;10451339;28;20532;-52
2022/12/08 12:49:42;;;;;;;0.63;0.28;;;16.10;62.30;;;;;;10452231;28;20057;-53
2022/12/08 12:55:04;;;;;;;0.80;0.30;;;16.00;62.40;;;;;;10438533;28;20029;-53
2022/12/08 13:00:17;;;;;;;0.57;0.28;;;16.10;62.30;;;;;;10437245;28;20013;-51
2022/12/08 13:05:32;;;;;;;2.28;0.40;;;16.10;62.10;;;;;;10437049;28;20021;-53
2022/12/08 13:10:39;;;;;;;1.20;0.30;;;16.00;62.30;;;;;;10395693;28;20025;-51
2022/12/08 13:16:12;;;;;;;0.40;0.25;;;16.10;62.10;;;;;;10430387;28;20142;-51
2022/12/08 13:21:17;;;;;;;0.65;0.30;;;16.10;62.10;;;;;;10448696;28;20032;-52
2022/12/08 13:26:22;;;;;;;0.73;0.30;;;16.10;62.10;;;;;;10408147;28;20017;-51
2022/12/08 13:32:44;;;;;;;1.20;0.30;;;16.10;62.00;;;;;;10431026;28;20064;-53
2022/12/08 13:37:48;;;;;;;;;;;16.10;62.10;;;;;;10374184;28;20029;-52
2022/12/08 13:43:42;;;;;;;0.60;0.20;;;16.00;62.20;;;;;;10441894;28;19901;-51
2022/12/08 13:48:52;;;;;;;0.30;0.20;;;16.00;62.30;;;;;;10407081;28;20084;-52
2022/12/08 13:54:35;;;;;;;0.20;0.20;;;15.90;62.40;;;;;;10414407;28;20021;-51
2022/12/08 13:59:43;;;;;;;0.90;0.40;;;16.00;62.30;;;;;;10358566;28;20120;-53
2022/12/08 14:04:48;;;;;;;1.60;0.30;;;16.00;62.20;;;;;;10408004;28;20108;-53
2022/12/08 14:09:49;;;;;;;1.42;0.60;;;15.90;62.30;;;;;;10412534;28;20488;-51
2022/12/08 14:15:05;;;;;;;0.40;0.30;;;16.00;62.20;;;;;;10406707;28;20026;-54
2022/12/08 14:20:12;;;;;;;0.47;0.30;;;16.00;62.20;;;;;;10449257;28;20017;-52
2022/12/08 14:25:16;;;;;;;1.17;0.40;;;15.90;62.00;;;;;;10435005;28;20061;-51
2022/12/08 14:30:24;;;;;;;0.63;0.30;;;16.10;61.80;;;;;;10448011;28;20427;-51
2022/12/08 14:35:37;;;;;;;0.60;0.20;;;16.10;61.70;;;;;;10446611;28;20103;-52
2022/12/08 14:40:46;;;;;;;1.38;0.30;;;16.10;61.50;;;;;;10442358;28;20032;-53
2022/12/08 14:45:50;;;;;;;0.90;0.57;;;16.10;61.70;;;;;;10419718;28;20672;-48
2022/12/08 14:51:02;;;;;;;0.80;0.43;;;16.00;61.70;;;;;;10446006;28;20234;-53
2022/12/08 14:56:34;;;;;;;0.80;0.38;;;16.00;61.70;;;;;;10446554;28;20100;-53
2022/12/08 15:01:36;;;;;;;0.38;0.32;;;16.00;61.70;;;;;;10415118;28;20029;-52
2022/12/08 15:06:58;;;;;;;1.35;0.40;;;16.00;61.90;;;;;;10409061;28;20056;-51
2022/12/08 15:12:11;;;;;;;0.55;0.30;;;16.10;61.60;;;;;;10425692;28;20112;-53
2022/12/08 15:17:39;;;;;;;0.98;0.50;;;16.10;61.50;;;;;;10425427;28;20089;-51
2022/12/08 15:22:40;;;;;;;1.33;0.68;;;16.10;61.50;;;;;;10427092;28;20053;-50
2022/12/08 15:27:40;;;;;;;1.73;0.65;;;16.10;61.30;;;;;;10433052;28;20096;-52
2022/12/08 15:32:42;;;;;;;1.95;0.60;;;16.10;61.30;;;;;;10445071;28;20033;-51
2022/12/08 15:37:43;;;;;;;1.27;0.68;;;16.10;61.30;;;;;;10403633;28;20038;-51
2022/12/08 15:42:44;;;;;;;2.42;1.05;;;16.10;61.10;;;;;;10424951;28;20384;-51
2022/12/08 15:47:45;;;;;;;2.92;1.20;;;16.00;61.20;;;;;;10424916;28;20037;-49
2022/12/08 15:52:46;;;;;;;2.00;1.15;;;16.10;61.00;;;;;;10434806;28;20040;-52
2022/12/08 15:57:52;;;;;;;1.83;1.00;;;16.10;60.90;;;;;;10450400;28;20021;-50
2022/12/08 16:02:54;;;;;;;3.28;1.52;;;16.10;60.80;;;;;;10452502;28;20021;-52
2022/12/08 16:07:55;;;;;;;1.60;1.00;;;16.10;60.70;;;;;;10432067;28;20028;-52
2022/12/08 16:18:22;;;;;;;1.87;1.00;;;16.10;60.70;;;;;;10445117;28;20103;-51
2022/12/08 16:23:23;;;;;;;2.15;1.13;;;16.10;60.80;;;;;;10420428;28;20487;-53
2022/12/08 16:28:24;;;;;;;2.13;0.93;;;16.10;60.70;;;;;;10424653;28;20067;-52
2022/12/08 16:33:24;;;;;;;5.70;1.52;;;16.00;60.90;;;;;;10435239;28;20045;-50
2022/12/08 16:38:25;;;;;;;4.68;1.40;;;16.00;61.50;;;;;;10427401;28;20469;-51
2022/12/08 16:43:26;;;;;;;7.95;1.50;;;16.00;61.70;;;;;;10431598;28;20064;-50
2022/12/08 16:48:26;;;;;;;7.35;1.60;;;16.10;61.90;;;;;;10446294;28;20471;-50
2022/12/08 16:53:27;;;;;;;11.55;2.88;;;16.10;61.70;;;;;;10433431;28;20021;-52
2022/12/08 16:58:28;;;;;;;15.07;4.90;;;16.40;62.50;;;;;;10428794;28;20633;-57
2022/12/08 17:03:30;;;;;;;62.47;35.08;;;16.30;62.30;;;;;;10419338;28;20025;-52
2022/12/08 17:08:30;;;;;;;32.88;14.90;;;16.30;64.50;;;;;;10444614;28;20072;-52
2022/12/08 17:13:31;;;;;;;28.77;10.70;;;16.20;63.00;;;;;;10448128;28;20045;-53
2022/12/08 17:18:32;;;;;;;26.25;9.13;;;16.10;65.90;;;;;;10466274;28;20103;-54
2022/12/08 17:23:33;;;;;;;26.60;9.35;;;16.40;66.50;;;;;;10447938;28;20021;-54
2022/12/08 17:28:33;;;;;;;19.50;9.43;;;16.60;65.00;;;;;;10437311;28;20116;-53
2022/12/08 17:33:34;;;;;;;28.73;8.07;;;16.70;65.20;;;;;;10449615;28;20025;-53
2022/12/08 17:38:35;;;;;;;30.88;8.00;;;16.60;65.20;;;;;;10431939;28;20025;-55
2022/12/08 17:43:36;;;;;;;16.08;6.43;;;16.60;65.80;;;;;;10423811;28;20033;-54
2022/12/08 17:48:55;;;;;;;22.98;7.15;;;16.50;65.90;;;;;;10414934;28;20025;-62
2022/12/08 17:53:56;;;;;;;24.33;6.55;;;16.40;65.50;;;;;;10439121;28;20874;-58
2022/12/08 17:58:56;;;;;;;22.50;6.68;;;16.20;66.40;;;;;;10443932;28;20539;-60
2022/12/08 18:03:57;;;;;;;14.30;5.80;;;16.10;65.80;;;;;;10435480;28;20111;-60
2022/12/08 18:08:59;;;;;;;15.80;6.32;;;16.00;65.90;;;;;;10447639;28;20037;-57
2022/12/08 18:14:08;;;;;;;16.27;5.72;;;15.90;65.90;;;;;;10422172;28;20055;-58
2022/12/08 18:19:11;;;;;;;10.90;6.00;;;15.80;66.00;;;;;;10438599;28;20018;-56
2022/12/08 18:24:20;;;;;;;15.80;6.18;;;15.80;66.00;;;;;;10442872;28;20028;-58
2022/12/08 18:29:22;;;;;;;28.45;6.63;;;15.70;66.20;;;;;;10446902;28;20072;-57
2022/12/08 18:34:22;;;;;;;13.40;5.10;;;15.70;66.20;;;;;;10399380;28;20385;-56
2022/12/08 18:39:31;;;;;;;8.85;5.50;;;15.60;66.10;;;;;;10431908;28;20113;-57
2022/12/08 18:44:31;;;;;;;14.30;5.55;;;15.60;66.00;;;;;;10447314;28;20068;-57
2022/12/08 18:49:32;;;;;;;11.80;4.85;;;15.70;65.80;;;;;;10444016;28;20584;-57
2022/12/08 18:54:33;;;;;;;11.65;4.18;;;15.70;65.70;;;;;;10407712;28;20108;-52
2022/12/08 18:59:33;;;;;;;10.60;5.28;;;15.70;65.30;;;;;;10414532;28;20104;-57
2022/12/08 19:04:34;;;;;;;13.38;4.78;;;15.80;64.90;;;;;;10411834;28;20028;-57
2022/12/08 19:09:36;;;;;;;13.23;5.40;;;15.90;64.50;;;;;;10431337;28;20116;-55
2022/12/08 19:14:37;;;;;;;11.15;4.32;;;16.00;64.20;;;;;;10424276;28;20373;-58
2022/12/08 19:19:37;;;;;;;9.38;3.90;;;16.00;64.10;;;;;;10422832;28;20060;-53
2022/12/08 19:24:38;;;;;;;6.60;3.80;;;15.90;64.00;;;;;;10429808;28;20471;-55
2022/12/08 19:29:38;;;;;;;8.82;3.72;;;15.90;63.80;;;;;;10415905;28;20333;-57
2022/12/08 19:34:39;;;;;;;6.57;3.40;;;16.00;63.70;;;;;;10424168;28;20068;-57
2022/12/08 19:45:15;;;;;;;5.83;3.30;;;16.00;63.70;;;;;;10432203;28;20132;-57
2022/12/08 19:50:35;;;;;;;8.52;3.50;;;16.00;63.80;;;;;;10434384;28;20033;-57
2022/12/08 19:55:37;;;;;;;7.28;3.97;;;16.10;64.00;;;;;;10423645;28;20013;-57
2022/12/08 20:00:39;;;;;;;7.55;4.40;;;16.10;63.80;;;;;;10438807;28;20033;-57
2022/12/08 20:05:40;;;;;;;5.88;3.58;;;16.10;64.00;;;;;;10432834;28;20599;-58
2022/12/08 20:10:43;;;;;;;18.25;4.32;;;16.10;64.00;;;;;;10414753;28;20088;-55
2022/12/08 20:15:45;;;;;;;6.80;4.30;;;16.10;63.90;;;;;;10444960;28;20151;-55
2022/12/08 20:20:46;;;;;;;5.45;3.10;;;16.00;63.80;;;;;;10437260;28;20095;-55
2022/12/08 20:25:47;;;;;;;7.35;3.42;;;15.90;64.30;;;;;;10429743;28;20064;-56
2022/12/08 20:30:48;;;;;;;6.63;3.30;;;16.00;63.60;;;;;;10443996;28;20116;-55
2022/12/08 20:36:01;;;;;;;3.70;2.60;;;15.90;63.40;;;;;;10446189;28;20025;-53
2022/12/08 20:41:01;;;;;;;7.57;4.32;;;15.90;63.40;;;;;;10448781;28;20036;-57
2022/12/08 20:46:11;;;;;;;5.30;3.88;;;15.90;63.30;;;;;;10449527;28;20045;-56
2022/12/08 20:51:15;;;;;;;7.28;3.90;;;15.90;63.20;;;;;;10436108;28;20033;-55
2022/12/08 20:56:19;;;;;;;7.35;3.80;;;16.00;63.00;;;;;;10438107;28;20029;-56
2022/12/08 21:01:22;;;;;;;4.63;2.67;;;16.00;62.80;;;;;;10444061;28;20060;-55
2022/12/08 21:06:26;;;;;;;7.47;3.03;;;16.00;62.60;;;;;;10449908;28;20049;-56
2022/12/08 21:11:27;;;;;;;7.13;2.67;;;16.00;62.50;;;;;;10406684;28;20108;-56
2022/12/08 21:16:27;;;;;;;10.10;3.13;;;16.00;62.40;;;;;;10445672;28;20021;-54
2022/12/08 21:21:28;;;;;;;4.20;2.28;;;16.00;62.30;;;;;;10450370;28;20026;-54
2022/12/08 21:26:29;;;;;;;5.25;3.30;;;16.00;62.20;;;;;;10437039;28;20104;-55
2022/12/08 21:31:30;;;;;;;4.47;2.78;;;16.00;62.10;;;;;;10449305;28;20459;-56
2022/12/08 21:36:31;;;;;;;6.78;3.00;;;16.10;62.10;;;;;;10448935;28;20023;-55
2022/12/08 21:46:51;;;;;;;4.50;3.33;;;16.10;61.60;;;;;;10439345;28;20056;-55
2022/12/08 21:51:52;;;;;;;3.70;3.17;;;16.20;61.30;;;;;;10443872;28;20029;-55
2022/12/08 21:56:53;;;;;;;5.13;3.05;;;16.30;61.20;;;;;;10422065;28;20036;-55
2022/12/08 22:01:53;;;;;;;6.07;2.95;;;16.30;60.90;;;;;;10408206;28;20096;-56
2022/12/08 22:06:54;;;;;;;4.80;3.03;;;16.30;60.80;;;;;;10438174;28;20109;-56
2022/12/08 22:11:55;;;;;;;4.50;2.58;;;16.30;60.90;;;;;;10432836;28;20025;-56
2022/12/08 22:16:55;;;;;;;4.35;2.20;;;16.30;60.90;;;;;;10448219;28;20072;-55
2022/12/08 22:21:56;;;;;;;3.90;2.72;;;16.30;60.90;;;;;;10443964;28;20105;-54
2022/12/08 22:26:57;;;;;;;4.03;2.70;;;16.30;60.80;;;;;;10446583;28;20710;-55
2022/12/08 22:31:58;;;;;;;4.72;3.05;;;16.30;60.80;;;;;;10415789;28;20099;-55
2022/12/08 22:36:58;;;;;;;5.43;3.20;;;16.30;60.80;;;;;;10441961;28;20048;-56
2022/12/08 22:41:59;;;;;;;4.80;3.08;;;16.30;60.50;;;;;;10446373;28;20112;-56
2022/12/08 22:46:59;;;;;;;3.97;2.80;;;16.30;60.60;;;;;;10444624;28;20068;-56
2022/12/08 22:52:00;;;;;;;4.15;3.33;;;16.30;60.70;;;;;;10441312;28;20057;-55
2022/12/08 22:57:01;;;;;;;6.15;2.70;;;16.30;60.70;;;;;;10432718;28;20028;-55
2022/12/08 23:02:02;;;;;;;4.10;2.38;;;16.30;60.50;;;;;;10445557;28;20104;-55
2022/12/08 23:07:03;;;;;;;4.45;2.47;;;16.30;60.50;;;;;;10446148;28;20068;-55
2022/12/08 23:12:04;;;;;;;3.97;2.95;;;16.30;60.60;;;;;;10445326;28;20025;-55
2022/12/08 23:17:05;;;;;;;3.90;2.50;;;16.30;60.50;;;;;;10416706;28;20048;-57
2022/12/08 23:22:06;;;;;;;3.45;2.50;;;16.30;60.50;;;;;;10452590;28;20015;-56
2022/12/08 23:27:07;;;;;;;3.70;2.42;;;16.30;60.60;;;;;;10432652;28;20033;-53
2022/12/08 23:32:08;;;;;;;3.38;2.10;;;16.30;60.50;;;;;;10444987;28;20025;-56
2022/12/08 23:37:08;;;;;;;4.63;2.83;;;16.30;60.40;;;;;;10438063;28;20491;-55
2022/12/08 23:42:09;;;;;;;3.60;2.35;;;16.30;60.20;;;;;;10446149;28;20116;-55
2022/12/08 23:47:10;;;;;;;4.15;2.25;;;16.40;60.20;;;;;;10443935;28;20170;-56
2022/12/08 23:52:12;;;;;;;3.97;2.70;;;16.30;60.10;;;;;;10444718;28;20137;-56
2022/12/08 23:57:13;;;;;;;4.30;2.58;;;16.30;60.30;;;;;;10443566;28;20337;-55
